createdAt,value
2018-07-26T00:00:20.603Z,58.16
2018-07-26T00:02:48.262Z,57.93
2018-07-26T00:05:15.932Z,57.91
2018-07-26T00:07:43.555Z,58.26
2018-07-26T00:10:11.290Z,58.80
2018-07-26T00:12:38.909Z,59.01
2018-07-26T00:15:07.126Z,57.61
2018-07-26T00:17:34.725Z,57.91
2018-07-26T00:20:02.394Z,57.43
2018-07-26T00:22:30.063Z,57.47
2018-07-26T00:24:57.760Z,58.31
2018-07-26T00:27:25.418Z,58.85
2018-07-26T00:29:53.091Z,58.95
2018-07-26T00:32:20.703Z,58.82
2018-07-26T00:34:48.362Z,59.49
2018-07-26T00:37:16.108Z,59.21
2018-07-26T00:39:43.777Z,58.90
2018-07-26T00:42:11.412Z,58.62
2018-07-26T00:44:39.321Z,58.68
2018-07-26T00:47:07.010Z,59.17
2018-07-26T00:49:34.685Z,59.09
2018-07-26T00:52:02.392Z,58.93
2018-07-26T00:54:30.069Z,59.29
2018-07-26T00:56:57.686Z,58.76
2018-07-26T00:59:25.312Z,59.34
2018-07-26T01:01:53.002Z,59.70
2018-07-26T01:04:20.655Z,59.86
2018-07-26T01:06:48.283Z,59.50
2018-07-26T01:09:15.901Z,59.84
2018-07-26T01:11:43.579Z,60.21
2018-07-26T01:14:11.239Z,59.65
2018-07-26T01:16:38.903Z,60.54
2018-07-26T01:19:06.583Z,60.29
2018-07-26T01:21:34.222Z,60.25
2018-07-26T01:24:01.926Z,60.33
2018-07-26T01:26:29.534Z,60.77
2018-07-26T01:28:57.175Z,60.68
2018-07-26T01:31:24.841Z,61.72
2018-07-26T01:33:52.710Z,61.27
2018-07-26T01:36:20.370Z,60.83
2018-07-26T01:38:48.018Z,61.29
2018-07-26T01:41:15.830Z,60.62
2018-07-26T01:43:50.167Z,60.80
2018-07-26T01:46:19.227Z,61.75
2018-07-26T01:48:46.892Z,61.92
2018-07-26T01:51:14.571Z,62.03
2018-07-26T01:53:42.915Z,62.50
2018-07-26T01:56:11.018Z,62.69
2018-07-26T01:58:38.674Z,62.65
2018-07-26T02:01:07.639Z,62.36
2018-07-26T02:03:35.558Z,62.42
2018-07-26T02:06:03.295Z,62.65
2018-07-26T02:08:31.233Z,63.09
2018-07-26T02:10:59.406Z,63.04
2018-07-26T02:13:27.143Z,62.66
2018-07-26T02:15:54.790Z,62.78
2018-07-26T02:18:22.766Z,62.67
2018-07-26T02:20:50.986Z,62.91
2018-07-26T02:23:18.694Z,61.84
2018-07-26T02:25:46.635Z,63.14
2018-07-26T02:28:14.389Z,62.85
2018-07-26T02:30:42.577Z,63.69
2018-07-26T02:33:10.172Z,63.34
2018-07-26T02:35:38.134Z,63.87
2018-07-26T02:38:06.071Z,64.10
2018-07-26T02:40:33.746Z,64.13
2018-07-26T02:43:01.407Z,64.51
2018-07-26T02:45:29.063Z,64.57
2018-07-26T02:47:56.716Z,64.11
2018-07-26T02:50:24.334Z,64.15
2018-07-26T02:52:52.012Z,64.48
2018-07-26T02:55:19.641Z,64.20
2018-07-26T02:57:47.306Z,64.08
2018-07-26T03:00:14.958Z,64.41
2018-07-26T03:02:42.595Z,64.00
2018-07-26T03:05:10.278Z,64.17
2018-07-26T03:07:38.295Z,64.54
2018-07-26T03:10:06.292Z,65.22
2018-07-26T03:12:33.928Z,65.34
2018-07-26T03:15:01.631Z,65.34
2018-07-26T03:17:29.268Z,64.42
2018-07-26T03:19:56.930Z,64.70
2018-07-26T03:22:24.561Z,64.59
2018-07-26T03:24:52.190Z,65.17
2018-07-26T03:27:19.967Z,65.52
2018-07-26T03:29:47.602Z,65.58
2018-07-26T03:32:15.242Z,66.19
2018-07-26T03:34:42.882Z,66.11
2018-07-26T03:37:10.623Z,66.03
2018-07-26T03:39:38.303Z,66.25
2018-07-26T03:42:05.978Z,66.46
2018-07-26T03:44:33.590Z,66.38
2018-07-26T03:47:01.274Z,66.21
2018-07-26T03:49:28.957Z,66.58
2018-07-26T03:51:56.669Z,66.67
2018-07-26T03:54:24.350Z,66.73
2018-07-26T03:56:52.049Z,66.07
2018-07-26T03:59:19.727Z,66.29
2018-07-26T04:01:47.374Z,65.30
2018-07-26T04:04:15.026Z,65.26
2018-07-26T04:06:42.765Z,64.35
2018-07-26T04:09:13.127Z,65.17
2018-07-26T04:11:41.833Z,65.69
2018-07-26T04:14:09.465Z,65.39
2018-07-26T04:16:37.111Z,66.14
2018-07-26T04:19:04.974Z,66.05
2018-07-26T04:21:32.598Z,66.22
2018-07-26T04:24:00.526Z,65.87
2018-07-26T04:26:29.224Z,64.70
2018-07-26T04:28:56.855Z,65.21
2018-07-26T04:31:24.598Z,64.31
2018-07-26T04:33:52.210Z,63.33
2018-07-26T04:36:19.826Z,63.09
2018-07-26T04:38:47.536Z,62.83
2018-07-26T04:41:15.252Z,62.94
2018-07-26T04:43:42.894Z,62.27
2018-07-26T04:46:10.592Z,61.57
2018-07-26T04:48:38.263Z,60.87
2018-07-26T04:51:06.314Z,59.84
2018-07-26T04:53:34.327Z,59.57
2018-07-26T04:56:01.963Z,58.71
2018-07-26T04:58:29.906Z,58.32
2018-07-26T05:00:57.588Z,57.73
2018-07-26T05:03:26.033Z,57.10
2018-07-26T05:05:53.681Z,56.44
2018-07-26T05:08:21.299Z,56.19
2018-07-26T05:10:48.902Z,55.84
2018-07-26T05:13:16.546Z,55.33
2018-07-26T05:15:44.170Z,55.69
2018-07-26T05:18:11.861Z,54.45
2018-07-26T05:20:39.536Z,54.24
2018-07-26T05:23:07.150Z,53.78
2018-07-26T05:25:34.794Z,53.98
2018-07-26T05:28:02.453Z,54.35
2018-07-26T05:30:30.088Z,54.37
2018-07-26T05:32:57.731Z,53.08
2018-07-26T05:35:25.419Z,52.93
2018-07-26T05:37:53.104Z,53.04
2018-07-26T05:40:20.742Z,53.14
2018-07-26T05:42:48.382Z,51.64
2018-07-26T05:45:16.118Z,51.25
2018-07-26T05:47:43.786Z,50.32
2018-07-26T05:50:11.460Z,50.01
2018-07-26T05:52:39.261Z,50.02
2018-07-26T05:55:07.280Z,49.20
2018-07-26T05:57:35.049Z,48.51
2018-07-26T06:00:02.862Z,47.62
2018-07-26T06:02:30.456Z,47.32
2018-07-26T06:04:58.154Z,46.83
2018-07-26T06:07:25.837Z,46.89
2018-07-26T06:09:53.465Z,46.94
2018-07-26T06:12:21.164Z,46.22
2018-07-26T06:14:48.786Z,46.01
2018-07-26T06:17:16.524Z,44.57
2018-07-26T06:19:44.168Z,42.94
2018-07-26T06:22:11.784Z,42.15
2018-07-26T06:24:39.423Z,41.11
2018-07-26T06:27:07.170Z,41.75
2018-07-26T06:29:34.846Z,43.03
2018-07-26T06:32:02.514Z,42.47
2018-07-26T06:34:30.190Z,40.94
2018-07-26T06:36:57.859Z,41.02
2018-07-26T06:39:25.573Z,40.29
2018-07-26T06:41:53.151Z,38.55
2018-07-26T06:44:20.788Z,38.56
2018-07-26T06:46:48.454Z,38.77
2018-07-26T06:49:16.099Z,39.00
2018-07-26T06:51:43.725Z,37.70
2018-07-26T06:54:11.378Z,36.74
2018-07-26T06:56:39.784Z,35.69
2018-07-26T06:59:07.533Z,36.54
2018-07-26T07:01:35.191Z,35.72
2018-07-26T07:04:02.880Z,35.67
2018-07-26T07:06:30.745Z,34.59
2018-07-26T07:08:58.414Z,34.63
2018-07-26T07:11:26.076Z,33.60
2018-07-26T07:13:53.870Z,34.05
2018-07-26T07:16:21.601Z,32.39
2018-07-26T07:18:49.246Z,32.02
2018-07-26T07:21:17.387Z,31.92
2018-07-26T07:23:45.450Z,31.96
2018-07-26T07:26:13.169Z,30.91
2018-07-26T07:28:40.861Z,30.09
2018-07-26T07:31:08.521Z,29.44
2018-07-26T07:33:36.207Z,29.17
2018-07-26T07:36:03.935Z,28.67
2018-07-26T07:38:31.602Z,28.39
2018-07-26T07:40:59.279Z,28.29
2018-07-26T07:43:26.930Z,28.20
2018-07-26T07:45:54.589Z,26.94
2018-07-26T07:48:22.263Z,26.52
2018-07-26T07:50:49.950Z,27.40
2018-07-26T07:53:17.664Z,26.39
2018-07-26T07:55:45.330Z,25.87
2018-07-26T07:58:12.958Z,25.38
2018-07-26T08:00:40.619Z,25.23
2018-07-26T08:03:08.282Z,26.58
2018-07-26T08:05:35.940Z,26.10
2018-07-26T08:08:03.612Z,27.26
2018-07-26T08:10:31.262Z,25.32
2018-07-26T08:12:58.910Z,22.06
2018-07-26T08:15:26.579Z,23.25
2018-07-26T08:17:54.277Z,22.24
2018-07-26T08:20:21.946Z,22.38
2018-07-26T08:22:49.596Z,21.31
2018-07-26T08:25:17.363Z,21.66
2018-07-26T08:27:45.023Z,21.50
2018-07-26T08:30:12.696Z,21.31
2018-07-26T08:32:40.358Z,21.79
2018-07-26T08:35:08.439Z,22.03
2018-07-26T08:37:36.066Z,20.44
2018-07-26T08:40:04.345Z,21.41
2018-07-26T08:42:32.021Z,20.12
2018-07-26T08:44:59.699Z,20.06
2018-07-26T08:47:27.379Z,20.59
2018-07-26T08:49:55.363Z,19.12
2018-07-26T08:52:23.026Z,18.52
2018-07-26T08:54:50.669Z,18.79
2018-07-26T08:57:18.314Z,18.85
2018-07-26T08:59:45.981Z,17.89
2018-07-26T09:02:13.676Z,18.23
2018-07-26T09:04:41.280Z,18.31
2018-07-26T09:07:08.987Z,19.04
2018-07-26T09:09:36.630Z,18.90
2018-07-26T09:12:04.321Z,16.86
2018-07-26T09:14:32.002Z,17.32
2018-07-26T09:16:59.689Z,17.47
2018-07-26T09:19:27.393Z,17.83
2018-07-26T09:21:55.078Z,18.29
2018-07-26T09:24:22.805Z,19.03
2018-07-26T09:26:50.452Z,19.61
2018-07-26T09:29:18.075Z,19.21
2018-07-26T09:31:45.834Z,18.34
2018-07-26T09:34:13.549Z,18.78
2018-07-26T09:36:41.258Z,19.19
2018-07-26T09:39:09.768Z,17.70
2018-07-26T09:41:37.609Z,18.41
2018-07-26T09:44:05.329Z,18.67
2018-07-26T09:46:33.118Z,19.35
2018-07-26T09:49:00.777Z,18.50
2018-07-26T09:51:28.442Z,17.70
2018-07-26T09:53:56.111Z,18.03
2018-07-26T09:56:23.767Z,18.33
2018-07-26T09:58:51.442Z,18.81
2018-07-26T10:01:24.827Z,18.25
2018-07-26T10:03:52.459Z,18.20
2018-07-26T10:06:20.147Z,17.72
2018-07-26T10:08:47.777Z,16.95
2018-07-26T10:11:15.437Z,18.40
2018-07-26T10:13:43.048Z,17.75
2018-07-26T10:16:10.752Z,18.14
2018-07-26T10:18:38.426Z,17.54
2018-07-26T10:21:06.215Z,17.35
2018-07-26T10:23:33.960Z,17.55
2018-07-26T10:26:01.728Z,17.53
2018-07-26T10:28:29.405Z,17.65
2018-07-26T10:30:57.053Z,17.35
2018-07-26T10:33:24.888Z,16.13
2018-07-26T10:35:52.666Z,17.18
2018-07-26T10:38:20.591Z,16.30
2018-07-26T10:40:48.300Z,15.93
2018-07-26T10:43:15.964Z,15.24
2018-07-26T10:45:43.602Z,15.63
2018-07-26T10:48:11.366Z,16.88
2018-07-26T10:50:39.030Z,16.38
2018-07-26T10:53:06.725Z,16.29
2018-07-26T10:55:34.453Z,15.30
2018-07-26T10:58:02.149Z,15.91
2018-07-26T11:00:30.192Z,14.89
2018-07-26T11:02:57.859Z,14.63
2018-07-26T11:05:25.506Z,14.83
2018-07-26T11:07:53.197Z,16.28
2018-07-26T11:10:20.859Z,16.25
2018-07-26T11:12:48.759Z,14.58
2018-07-26T11:15:22.469Z,15.58
2018-07-26T11:17:50.084Z,14.86
2018-07-26T11:20:18.233Z,17.18
2018-07-26T11:22:45.958Z,16.74
2018-07-26T11:25:13.694Z,18.01
2018-07-26T11:27:41.358Z,17.19
2018-07-26T11:30:09.387Z,17.69
2018-07-26T11:32:37.138Z,17.80
2018-07-26T11:35:04.942Z,18.19
2018-07-26T11:37:32.699Z,17.23
2018-07-26T11:40:00.368Z,18.19
2018-07-26T11:42:28.069Z,18.36
2018-07-26T11:44:55.766Z,19.53
2018-07-26T11:47:23.531Z,17.89
2018-07-26T11:49:51.230Z,17.57
2018-07-26T11:52:19.154Z,18.11
2018-07-26T11:54:46.814Z,18.68
2018-07-26T11:57:14.534Z,18.46
2018-07-26T11:59:42.266Z,20.14
2018-07-26T12:02:10.134Z,19.39
2018-07-26T12:04:38.539Z,19.79
2018-07-26T12:07:06.450Z,19.76
2018-07-26T12:09:34.227Z,19.86
2018-07-26T12:12:01.960Z,20.41
2018-07-26T12:14:29.651Z,20.35
2018-07-26T12:16:57.405Z,20.10
2018-07-26T12:19:25.117Z,20.99
2018-07-26T12:21:52.917Z,20.90
2018-07-26T12:24:20.656Z,20.66
2018-07-26T12:26:48.773Z,20.07
2018-07-26T12:29:17.039Z,20.39
2018-07-26T12:31:44.746Z,20.53
2018-07-26T12:34:12.441Z,20.25
2018-07-26T12:36:40.152Z,21.09
2018-07-26T12:39:08.844Z,20.38
2018-07-26T12:41:36.657Z,20.13
2018-07-26T12:44:04.421Z,21.00
2018-07-26T12:46:32.982Z,20.91
2018-07-26T12:49:01.511Z,22.13
2018-07-26T12:51:29.270Z,21.98
2018-07-26T12:53:57.379Z,21.91
2018-07-26T12:56:25.147Z,20.69
2018-07-26T12:58:52.863Z,20.60
2018-07-26T13:01:20.722Z,21.10
2018-07-26T13:03:48.522Z,21.15
2018-07-26T13:06:16.205Z,19.97
2018-07-26T13:08:43.927Z,21.73
2018-07-26T13:11:11.698Z,21.99
2018-07-26T13:13:39.399Z,22.57
2018-07-26T13:16:07.144Z,22.21
2018-07-26T13:18:34.976Z,23.17
2018-07-26T13:21:02.731Z,23.67
2018-07-26T13:23:30.433Z,23.08
2018-07-26T13:25:58.134Z,22.79
2018-07-26T13:28:25.916Z,23.18
2018-07-26T13:30:53.611Z,23.64
2018-07-26T13:33:21.386Z,24.08
2018-07-26T13:35:49.067Z,25.02
2018-07-26T13:38:16.802Z,25.13
2018-07-26T13:40:44.510Z,24.58
2018-07-26T13:43:12.229Z,24.90
2018-07-26T13:45:39.992Z,24.65
2018-07-26T13:48:07.773Z,24.66
2018-07-26T13:50:35.551Z,24.37
2018-07-26T13:53:03.432Z,24.61
2018-07-26T13:55:31.154Z,25.33
2018-07-26T13:57:59.474Z,25.18
2018-07-26T14:00:27.185Z,25.97
2018-07-26T14:02:54.867Z,25.55
2018-07-26T14:05:22.595Z,24.40
2018-07-26T14:07:50.298Z,25.94
2018-07-26T14:10:18.046Z,25.99
2018-07-26T14:12:45.735Z,25.30
2018-07-26T14:15:13.464Z,24.83
2018-07-26T14:17:41.194Z,25.04
2018-07-26T14:20:09.950Z,25.63
2018-07-26T14:22:38.086Z,25.14
2018-07-26T14:25:05.811Z,25.72
2018-07-26T14:27:33.562Z,26.26
2018-07-26T14:30:01.481Z,26.56
2018-07-26T14:32:29.165Z,26.22
2018-07-26T14:34:56.834Z,24.57
2018-07-26T14:37:24.535Z,25.08
2018-07-26T14:39:52.268Z,25.06
2018-07-26T14:42:20.098Z,25.25
2018-07-26T14:44:47.858Z,25.62
2018-07-26T14:47:15.611Z,25.60
2018-07-26T14:49:43.400Z,25.97
2018-07-26T14:52:11.158Z,25.18
2018-07-26T14:54:38.907Z,25.77
2018-07-26T14:57:06.772Z,24.91
2018-07-26T14:59:34.433Z,24.62
2018-07-26T15:02:02.200Z,25.32
2018-07-26T15:04:29.875Z,24.42
2018-07-26T15:06:57.937Z,25.10
2018-07-26T15:09:25.621Z,24.25
2018-07-26T15:11:53.363Z,25.18
2018-07-26T15:14:21.070Z,24.89
2018-07-26T15:16:48.807Z,26.03
2018-07-26T15:19:16.607Z,26.09
2018-07-26T15:21:44.374Z,25.91
2018-07-26T15:24:12.966Z,25.30
2018-07-26T15:26:40.687Z,25.92
2018-07-26T15:29:08.394Z,25.39
2018-07-26T15:31:36.121Z,25.37
2018-07-26T15:34:03.835Z,25.60
2018-07-26T15:36:31.542Z,25.56
2018-07-26T15:38:59.289Z,25.48
2018-07-26T15:41:27.067Z,26.04
2018-07-26T15:43:54.764Z,26.08
2018-07-26T15:46:22.490Z,26.41
2018-07-26T15:48:50.185Z,26.50
2018-07-26T15:51:17.935Z,26.71
2018-07-26T15:53:45.606Z,27.65
2018-07-26T15:56:13.318Z,27.53
2018-07-26T15:58:41.192Z,26.76
2018-07-26T16:01:08.904Z,26.55
2018-07-26T16:03:36.672Z,26.95
2018-07-26T16:06:04.419Z,27.45
2018-07-26T16:08:32.099Z,27.41
2018-07-26T16:10:59.847Z,27.79
2018-07-26T16:13:27.570Z,28.35
2018-07-26T16:15:55.309Z,27.43
2018-07-26T16:18:23.051Z,28.09
2018-07-26T16:20:50.810Z,28.13
2018-07-26T16:23:18.561Z,28.42
2018-07-26T16:25:46.259Z,28.48
2018-07-26T16:28:13.950Z,28.32
2018-07-26T16:30:41.658Z,28.40
2018-07-26T16:33:09.404Z,28.55
2018-07-26T16:35:37.081Z,28.08
2018-07-26T16:38:05.150Z,28.27
2018-07-26T16:40:33.728Z,28.58
2018-07-26T16:43:01.435Z,28.28
2018-07-26T16:45:29.254Z,28.26
2018-07-26T16:47:56.915Z,27.47
2018-07-26T16:50:24.625Z,27.10
2018-07-26T16:52:52.753Z,27.29
2018-07-26T16:55:20.516Z,28.24
2018-07-26T16:57:48.235Z,27.03
2018-07-26T17:00:16.269Z,28.21
2018-07-26T17:02:43.939Z,27.57
2018-07-26T17:05:11.652Z,27.16
2018-07-26T17:07:39.407Z,27.84
2018-07-26T17:10:07.983Z,27.50
2018-07-26T17:12:36.485Z,27.17
2018-07-26T17:15:04.890Z,27.12
2018-07-26T17:17:32.646Z,27.04
2018-07-26T17:20:00.402Z,28.16
2018-07-26T17:22:28.127Z,27.44
2018-07-26T17:24:55.848Z,27.77
2018-07-26T17:27:23.536Z,28.06
2018-07-26T17:29:51.270Z,28.64
2018-07-26T17:32:19.053Z,28.92
2018-07-26T17:34:46.905Z,28.79
2018-07-26T17:37:14.803Z,28.71
2018-07-26T17:39:42.466Z,28.68
2018-07-26T17:42:10.162Z,29.38
2018-07-26T17:44:37.902Z,29.37
2018-07-26T17:47:05.698Z,28.94
2018-07-26T17:49:33.433Z,29.37
2018-07-26T17:52:01.138Z,29.91
2018-07-26T17:54:28.827Z,29.25
2018-07-26T17:56:56.617Z,29.98
2018-07-26T17:59:24.367Z,29.91
2018-07-26T18:01:52.059Z,30.66
2018-07-26T18:04:19.779Z,30.32
2018-07-26T18:06:47.458Z,30.54
2018-07-26T18:09:15.468Z,30.73
2018-07-26T18:11:43.183Z,30.10
2018-07-26T18:14:10.878Z,30.92
2018-07-26T18:16:38.640Z,30.63
2018-07-26T18:19:06.380Z,31.32
2018-07-26T18:21:34.082Z,31.56
2018-07-26T18:24:01.751Z,31.16
2018-07-26T18:26:29.481Z,31.11
2018-07-26T18:28:57.318Z,31.25
2018-07-26T18:31:25.276Z,31.88
2018-07-26T18:33:53.068Z,32.16
2018-07-26T18:36:20.841Z,31.68
2018-07-26T18:38:48.562Z,31.83
2018-07-26T18:41:16.298Z,32.56
2018-07-26T18:43:44.040Z,32.22
2018-07-26T18:46:12.019Z,32.40
2018-07-26T18:48:40.374Z,32.25
2018-07-26T18:51:08.111Z,33.46
2018-07-26T18:53:35.850Z,32.77
2018-07-26T18:56:03.617Z,33.09
2018-07-26T18:58:31.305Z,32.99
2018-07-26T19:00:59.046Z,32.96
2018-07-26T19:03:26.814Z,33.89
2018-07-26T19:05:54.537Z,33.43
2018-07-26T19:08:22.289Z,34.01
2018-07-26T19:10:50.029Z,34.34
2018-07-26T19:13:17.800Z,35.72
2018-07-26T19:15:45.614Z,36.16
2018-07-26T19:18:13.345Z,36.73
2018-07-26T19:20:41.027Z,36.51
2018-07-26T19:23:08.749Z,37.15
2018-07-26T19:25:36.458Z,38.34
2018-07-26T19:28:04.204Z,38.40
2018-07-26T19:30:31.921Z,38.81
2018-07-26T19:32:59.665Z,39.29
2018-07-26T19:35:27.402Z,39.29
2018-07-26T19:37:55.194Z,39.22
2018-07-26T19:40:23.068Z,39.16
2018-07-26T19:42:50.781Z,39.10
2018-07-26T19:45:18.477Z,39.37
2018-07-26T19:47:46.177Z,40.30
2018-07-26T19:50:13.967Z,39.89
2018-07-26T19:52:41.679Z,40.59
2018-07-26T19:55:10.078Z,41.12
2018-07-26T19:57:37.790Z,39.32
2018-07-26T20:00:06.183Z,39.31
2018-07-26T20:02:34.188Z,39.20
2018-07-26T20:05:01.893Z,38.53
2018-07-26T20:07:29.606Z,38.71
2018-07-26T20:09:57.331Z,38.26
2018-07-26T20:12:25.241Z,38.47
2018-07-26T20:14:52.970Z,37.57
2018-07-26T20:17:20.663Z,37.95
2018-07-26T20:19:48.400Z,37.20
2018-07-26T20:22:17.236Z,36.98
2018-07-26T20:24:44.968Z,37.38
2018-07-26T20:27:12.678Z,37.22
2018-07-26T20:29:40.556Z,37.33
2018-07-26T20:32:08.223Z,36.79
2018-07-26T20:34:36.000Z,36.71
2018-07-26T20:37:03.750Z,37.14
2018-07-26T20:39:31.457Z,37.06
2018-07-26T20:41:59.210Z,36.93
2018-07-26T20:44:26.911Z,36.44
2018-07-26T20:46:54.682Z,36.83
2018-07-26T20:49:22.387Z,36.80
2018-07-26T20:51:50.155Z,36.59
2018-07-26T20:54:17.926Z,36.58
2018-07-26T20:56:45.622Z,36.73
2018-07-26T20:59:13.387Z,36.20
2018-07-26T21:01:41.086Z,36.58
2018-07-26T21:04:08.778Z,36.49
2018-07-26T21:06:36.456Z,36.49
2018-07-26T21:09:06.331Z,36.46
2018-07-26T21:11:34.067Z,36.23
2018-07-26T21:14:02.007Z,35.82
2018-07-26T21:16:29.707Z,36.47
2018-07-26T21:18:57.408Z,36.10
2018-07-26T21:21:25.115Z,35.95
2018-07-26T21:23:52.825Z,36.61
2018-07-26T21:26:20.494Z,36.47
2018-07-26T21:28:48.187Z,37.05
2018-07-26T21:31:15.900Z,37.16
2018-07-26T21:33:43.742Z,37.07
2018-07-26T21:36:11.410Z,37.53
2018-07-26T21:38:39.105Z,38.52
2018-07-26T21:41:06.843Z,38.08
2018-07-26T21:43:34.538Z,37.72
2018-07-26T21:46:02.222Z,38.17
2018-07-26T21:48:29.879Z,39.14
2018-07-26T21:50:57.950Z,39.58
2018-07-26T21:53:25.630Z,39.62
2018-07-26T21:55:53.347Z,39.68
2018-07-26T21:58:21.329Z,40.10
2018-07-26T22:00:54.675Z,40.31
2018-07-26T22:03:22.410Z,40.88
2018-07-26T22:05:50.157Z,41.60
2018-07-26T22:08:17.871Z,41.51
2018-07-26T22:10:45.810Z,41.91
2018-07-26T22:13:13.541Z,41.54
2018-07-26T22:15:41.241Z,41.09
2018-07-26T22:18:08.963Z,41.65
2018-07-26T22:20:36.925Z,40.89
2018-07-26T22:23:04.689Z,40.60
2018-07-26T22:25:32.390Z,40.68
2018-07-26T22:28:00.078Z,41.04
2018-07-26T22:30:27.783Z,40.46
2018-07-26T22:32:55.519Z,40.62
2018-07-26T22:35:23.202Z,40.60
2018-07-26T22:37:50.878Z,41.05
2018-07-26T22:40:18.568Z,41.56
2018-07-26T22:42:46.295Z,41.82
2018-07-26T22:45:14.003Z,42.37
2018-07-26T22:47:41.758Z,42.46
2018-07-26T22:50:09.456Z,42.92
2018-07-26T22:52:37.144Z,43.27
2018-07-26T22:55:04.866Z,43.30
2018-07-26T22:57:32.603Z,43.08
2018-07-26T23:00:00.290Z,43.40
2018-07-26T23:02:27.986Z,44.08
2018-07-26T23:04:55.711Z,43.90
2018-07-26T23:07:23.401Z,44.72
2018-07-26T23:09:51.075Z,44.93
2018-07-26T23:12:18.727Z,45.43
2018-07-26T23:14:46.447Z,46.05
2018-07-26T23:17:14.155Z,45.70
2018-07-26T23:19:41.830Z,45.81
2018-07-26T23:22:09.523Z,46.32
2018-07-26T23:24:37.166Z,46.61
2018-07-26T23:27:04.930Z,46.53
2018-07-26T23:29:32.591Z,46.17
2018-07-26T23:32:00.266Z,46.62
2018-07-26T23:34:27.941Z,46.48
2018-07-26T23:36:55.635Z,46.40
2018-07-26T23:39:23.472Z,46.51
2018-07-26T23:41:51.179Z,46.34
2018-07-26T23:44:18.882Z,47.39
2018-07-26T23:46:46.635Z,47.39
2018-07-26T23:49:14.295Z,46.90
2018-07-26T23:51:41.986Z,47.40
2018-07-26T23:54:09.698Z,47.58
2018-07-26T23:56:37.375Z,47.82
2018-07-26T23:59:05.396Z,47.73
